Morteros, Argentina
Current Conditions -  °F | °C
As of 3:00 AM on Wednesday 28 Jan 2015 (Local Time) from SACO Reporting Station
Scattered Clouds Scattered Clouds  
Wind Chill: 64°   Ceiling: Unl
Heat Index: 64°   Visibility: 6mi
Dew Point: 50°   Wind: 0mph
Humidity: 59%   Direction: NA
Pressure: 29.85"   Gusts: NA
Location:  30.7°S, 62°W
Report Text: SACO 280600Z 00000KT 9999 FEW025 SCT10018/10 Q1011
Loading
Personal Weather Stations






























Interactive Weather Map New forecast layout! Learn more

10-Day Weather Forecast

Advertisements
Track Severe Weather on mobile